Impacts TAF Board INFO
FOR SITUATIONAL AWARENESS. NOT TO BE USED FOR FLIGHT PLANNING PURPOSES.
IDs:

KLAS - Las Vegas/McCarran I, NV, US

Issued at 1723 UTC 19 Oct 2017
Updated at 2002 UTC 19 Oct 2017
Potential Impact None Slight Moderate High
Time1956Z 19/21Z 19/22Z 19/23Z 20/00Z 20/01Z 20/02Z 20/03Z 20/04Z 20/05Z 20/06Z 20/07Z 20/08Z 20/09Z>>
Type OBS PRVL PRVL PRVL PRVL PRVL PRVL PRVL PRVL PRVL PRVL PRVL PRVL PRVL
VIS 10 >6 >6 >6 >6 >6 >6 >6 >6 >6 >6 >6 >6 >6
CIG -- -- -- -- -- -- -- -- -- -- -- -- -- --
Cover FEW FEW FEW SKC SKC SKC SKC SKC SKC SKC SKC SKC SKC SKC
FltCat VFR VFR VFR VFR VFR VFR VFR VFR VFR VFR VFR VFR VFR VFR
WX -- -- -- -- -- -- -- -- -- -- -- -- -- --
WDir 100 80 80 200 200 200 200 200 200 200 200 200 200 200
WSpd 7 6 6 12 12 12 12 12 12 16 16 16 16 16
WGst -- -- -- -- -- -- -- -- -- 26 26 26 26 26

Raw TAF
KLAS 191723Z 1918/2024 VRB05KT P6SM SCT180
  FM191900 08006KT P6SM FEW180 FEW250
  FM192300 20012KT P6SM SKC
  FM200500 20016G26KT P6SM SKC
  FM201300 20020G30KT P6SM SKC
  FM202000 24012G20KT P6SM SKC


Raw METAR
KLAS 191956Z 10007KT 10SM FEW220 29/M06 A2982 RMK AO2 SLP076 T02941061
KLAS 191856Z 05004KT 10SM FEW220 28/M06 A2986 RMK AO2 SLP091 T02781056
KLAS 191756Z 01003KT 10SM FEW110 SCT220 27/M07 A2988 RMK AO2 SLP098 T02671067 10267 20200 58002

METAR Board
Radar Display
Forecast Discussion

FOR SITUATIONAL AWARENESS. NOT TO BE USED FOR FLIGHT PLANNING PURPOSES.